createdAt,value
2019-02-06T00:01:13.946Z,101652
2019-02-06T00:03:42.784Z,101656
2019-02-06T00:06:12.187Z,101649
2019-02-06T00:08:41.031Z,101649
2019-02-06T00:11:09.924Z,101652
2019-02-06T00:13:38.780Z,101658
2019-02-06T00:16:07.587Z,101650
2019-02-06T00:18:36.450Z,101647
2019-02-06T00:21:05.250Z,101652
2019-02-06T00:23:34.093Z,101647
2019-02-06T00:26:02.969Z,101644
2019-02-06T00:28:31.817Z,101641
2019-02-06T00:31:00.669Z,101642
2019-02-06T00:33:29.503Z,101643
2019-02-06T00:35:58.333Z,101646
2019-02-06T00:38:27.171Z,101652
2019-02-06T00:40:56.012Z,101648
2019-02-06T00:43:25.603Z,101646
2019-02-06T00:45:54.437Z,101653
2019-02-06T00:48:23.278Z,101653
2019-02-06T00:50:52.700Z,101650
2019-02-06T00:53:21.549Z,101654
2019-02-06T00:55:50.388Z,101653
2019-02-06T00:58:19.955Z,101655
2019-02-06T01:00:48.789Z,101652
2019-02-06T01:03:17.643Z,101645
2019-02-06T01:05:46.493Z,101650
2019-02-06T01:08:15.329Z,101649
2019-02-06T01:10:44.191Z,101643
2019-02-06T01:13:13.025Z,101634
2019-02-06T01:15:41.854Z,101628
2019-02-06T01:18:10.688Z,101640
2019-02-06T01:20:39.532Z,101649
2019-02-06T01:23:08.356Z,101643
2019-02-06T01:25:37.187Z,101657
2019-02-06T01:28:06.060Z,101648
2019-02-06T01:30:35.750Z,101659
2019-02-06T01:33:05.381Z,101651
2019-02-06T01:35:34.219Z,101652
2019-02-06T01:38:03.055Z,101654
2019-02-06T01:40:31.881Z,101659
2019-02-06T01:43:00.719Z,101660
2019-02-06T01:45:30.327Z,101658
2019-02-06T01:47:59.923Z,101667
2019-02-06T01:50:28.765Z,101656
2019-02-06T01:52:57.605Z,101665
2019-02-06T01:55:27.177Z,101666
2019-02-06T01:57:56.022Z,101658
2019-02-06T02:00:24.854Z,101668
2019-02-06T02:02:53.686Z,101667
2019-02-06T02:05:23.337Z,101660
2019-02-06T02:07:52.284Z,101652
2019-02-06T02:10:21.029Z,101661
2019-02-06T02:12:49.839Z,101662
2019-02-06T02:15:18.663Z,101661
2019-02-06T02:17:47.495Z,101656
2019-02-06T02:20:18.158Z,101643
2019-02-06T02:22:46.999Z,101656
2019-02-06T02:25:15.838Z,101657
2019-02-06T02:27:45.433Z,101654
2019-02-06T02:30:15.220Z,101665
2019-02-06T02:32:44.052Z,101647
2019-02-06T02:35:13.652Z,101645
2019-02-06T02:37:43.228Z,101646
2019-02-06T02:40:12.053Z,101647
2019-02-06T02:42:41.626Z,101638
2019-02-06T02:45:10.472Z,101645
2019-02-06T02:47:39.299Z,101639
2019-02-06T02:50:08.122Z,101631
2019-02-06T02:52:37.691Z,101630
2019-02-06T02:55:06.529Z,101628
2019-02-06T02:57:35.356Z,101626
2019-02-06T03:00:09.031Z,101625
2019-02-06T03:02:38.729Z,101621
2019-02-06T03:05:07.568Z,101608
2019-02-06T03:07:36.387Z,101622
2019-02-06T03:10:05.961Z,101620
2019-02-06T03:12:34.790Z,101618
2019-02-06T03:15:03.640Z,101620
2019-02-06T03:17:32.483Z,101621
2019-02-06T03:20:01.326Z,101615
2019-02-06T03:22:32.846Z,101614
2019-02-06T03:24:58.997Z,101613
2019-02-06T03:27:27.823Z,101614
2019-02-06T03:29:57.426Z,101606
2019-02-06T03:32:26.325Z,101601
2019-02-06T03:34:55.105Z,101603
2019-02-06T03:37:23.937Z,101606
2019-02-06T03:39:52.793Z,101606
2019-02-06T03:42:22.362Z,101598
2019-02-06T03:44:51.204Z,101603
2019-02-06T03:47:20.044Z,101605
2019-02-06T03:49:48.880Z,101602
2019-02-06T03:52:17.716Z,101597
2019-02-06T03:54:46.554Z,101595
2019-02-06T03:57:15.389Z,101588
2019-02-06T03:59:44.298Z,101593
2019-02-06T04:02:13.148Z,101593
2019-02-06T04:04:42.000Z,101599
2019-02-06T04:07:10.830Z,101598
2019-02-06T04:09:39.668Z,101598
2019-02-06T04:12:08.522Z,101598
2019-02-06T04:14:37.358Z,101600
2019-02-06T04:17:06.187Z,101605
2019-02-06T04:19:35.141Z,101604
2019-02-06T04:22:04.604Z,101620
2019-02-06T04:24:33.590Z,101606
2019-02-06T04:27:02.276Z,101603
2019-02-06T04:29:31.122Z,101604
2019-02-06T04:31:59.954Z,101605
2019-02-06T04:34:28.797Z,101606
2019-02-06T04:37:06.342Z,101599
2019-02-06T04:39:26.464Z,101600
2019-02-06T04:41:56.041Z,101606
2019-02-06T04:44:24.895Z,101603
2019-02-06T04:46:54.477Z,101597
2019-02-06T04:49:23.327Z,101592
2019-02-06T04:51:52.169Z,101597
2019-02-06T04:54:21.010Z,101592
2019-02-06T04:56:49.845Z,101591
2019-02-06T04:59:18.676Z,101602
2019-02-06T05:01:47.510Z,101590
2019-02-06T05:04:16.360Z,101599
2019-02-06T05:06:45.203Z,101599
2019-02-06T05:09:14.042Z,101600
2019-02-06T05:11:42.886Z,101605
2019-02-06T05:14:11.729Z,101612
2019-02-06T05:16:40.579Z,101608
2019-02-06T05:19:09.419Z,101604
2019-02-06T05:21:38.253Z,101602
2019-02-06T05:24:07.111Z,101604
2019-02-06T05:26:36.673Z,101612
2019-02-06T05:29:05.502Z,101605
2019-02-06T05:31:34.334Z,101609
2019-02-06T05:34:03.174Z,101609
2019-02-06T05:36:32.765Z,101614
2019-02-06T05:39:01.600Z,101614
2019-02-06T05:41:30.453Z,101616
2019-02-06T05:43:59.318Z,101608
2019-02-06T05:46:28.154Z,101606
2019-02-06T05:48:56.992Z,101604
2019-02-06T05:51:25.838Z,101599
2019-02-06T05:53:54.671Z,101604
2019-02-06T05:56:23.516Z,101598
2019-02-06T05:59:04.872Z,101595
2019-02-06T06:01:33.734Z,101597
2019-02-06T06:04:02.598Z,101597
2019-02-06T06:06:31.518Z,101599
2019-02-06T06:09:01.110Z,101599
2019-02-06T06:11:29.965Z,101593
2019-02-06T06:13:58.810Z,101592
2019-02-06T06:16:27.681Z,101588
2019-02-06T06:18:56.568Z,101590
2019-02-06T06:21:25.390Z,101583
2019-02-06T06:23:54.259Z,101585
2019-02-06T06:26:23.081Z,101585
2019-02-06T06:28:51.937Z,101588
2019-02-06T06:31:20.822Z,101596
2019-02-06T06:33:49.686Z,101600
2019-02-06T06:36:18.515Z,101594
2019-02-06T06:38:47.362Z,101599
2019-02-06T06:41:16.215Z,101599
2019-02-06T06:43:45.068Z,101599
2019-02-06T06:46:13.916Z,101601
2019-02-06T06:48:42.790Z,101599
2019-02-06T06:51:11.630Z,101602
2019-02-06T06:53:40.534Z,101605
2019-02-06T06:56:09.390Z,101607
2019-02-06T06:58:38.241Z,101608
2019-02-06T07:01:07.096Z,101607
2019-02-06T07:03:36.674Z,101609
2019-02-06T07:06:05.529Z,101605
2019-02-06T07:08:34.373Z,101609
2019-02-06T07:11:03.967Z,101609
2019-02-06T07:13:32.821Z,101620
2019-02-06T07:16:01.687Z,101620
2019-02-06T07:18:30.526Z,101621
2019-02-06T07:21:01.435Z,101619
2019-02-06T07:23:28.250Z,101625
2019-02-06T07:25:57.105Z,101634
2019-02-06T07:28:26.031Z,101629
2019-02-06T07:30:54.906Z,101624
2019-02-06T07:33:23.713Z,101627
2019-02-06T07:35:52.564Z,101631
2019-02-06T07:38:24.314Z,101633
2019-02-06T07:40:50.278Z,101630
2019-02-06T07:43:19.143Z,101634
2019-02-06T07:45:48.035Z,101633
2019-02-06T07:48:16.869Z,101628
2019-02-06T07:50:45.734Z,101635
2019-02-06T07:53:14.587Z,101640
2019-02-06T07:55:43.459Z,101643
2019-02-06T07:58:12.308Z,101639
2019-02-06T08:00:41.203Z,101645
2019-02-06T08:03:10.017Z,101636
2019-02-06T08:05:38.874Z,101644
2019-02-06T08:08:07.757Z,101644
2019-02-06T08:10:36.600Z,101645
2019-02-06T08:13:05.446Z,101643
2019-02-06T08:15:34.293Z,101635
2019-02-06T08:18:03.209Z,101632
2019-02-06T08:20:32.083Z,101629
2019-02-06T08:23:00.901Z,101632
2019-02-06T08:25:29.747Z,101628
2019-02-06T08:27:58.596Z,101636
2019-02-06T08:30:29.415Z,101635
2019-02-06T08:32:58.289Z,101638
2019-02-06T08:35:27.230Z,101638
2019-02-06T08:37:56.021Z,101634
2019-02-06T08:40:25.819Z,101628
2019-02-06T08:42:54.633Z,101631
2019-02-06T08:45:23.491Z,101628
2019-02-06T08:47:52.329Z,101627
2019-02-06T08:50:21.209Z,101631
2019-02-06T08:52:50.051Z,101639
2019-02-06T08:55:21.815Z,101634
2019-02-06T08:57:50.682Z,101643
2019-02-06T09:03:01.468Z,101638
2019-02-06T09:05:30.302Z,101634
2019-02-06T09:07:59.159Z,101632
2019-02-06T09:10:28.009Z,101639
2019-02-06T09:12:56.850Z,101640
2019-02-06T09:15:27.420Z,101637
2019-02-06T09:17:55.279Z,101635
2019-02-06T09:20:24.131Z,101646
2019-02-06T09:22:53.039Z,101632
2019-02-06T09:25:23.627Z,101624
2019-02-06T09:27:53.207Z,101627
2019-02-06T09:30:22.063Z,101627
2019-02-06T09:32:50.921Z,101630
2019-02-06T09:35:19.747Z,101640
2019-02-06T09:37:48.586Z,101629
2019-02-06T09:40:22.112Z,101617
2019-02-06T09:42:50.955Z,101626
2019-02-06T09:45:19.813Z,101625
2019-02-06T09:47:48.669Z,101621
2019-02-06T09:50:18.394Z,101615
2019-02-06T09:52:47.221Z,101618
2019-02-06T09:55:16.056Z,101608
2019-02-06T09:57:44.915Z,101609
2019-02-06T10:00:18.456Z,101618
2019-02-06T10:02:47.285Z,101618
2019-02-06T10:05:16.107Z,101607
2019-02-06T10:07:46.133Z,101600
2019-02-06T10:10:13.819Z,101604
2019-02-06T10:12:42.653Z,101612
2019-02-06T10:17:51.721Z,101606
2019-02-06T10:20:20.575Z,101606
2019-02-06T10:22:49.419Z,101605
2019-02-06T10:25:18.279Z,101609
2019-02-06T10:27:47.120Z,101602
2019-02-06T10:32:55.243Z,101600
2019-02-06T10:35:24.077Z,101601
2019-02-06T10:37:52.917Z,101598
2019-02-06T10:40:21.779Z,101597
2019-02-06T10:42:50.615Z,101596
2019-02-06T10:45:21.119Z,101594
2019-02-06T10:47:49.039Z,101589
2019-02-06T10:52:59.917Z,101585
2019-02-06T10:55:28.756Z,101581
2019-02-06T10:57:57.606Z,101574
2019-02-06T11:00:29.896Z,101569
2019-02-06T11:02:57.097Z,101565
2019-02-06T11:05:25.926Z,101557
2019-02-06T11:07:55.510Z,101554
2019-02-06T11:10:24.347Z,101552
2019-02-06T11:12:53.183Z,101542
2019-02-06T11:15:22.032Z,101549
2019-02-06T11:17:50.890Z,101539
2019-02-06T11:20:22.239Z,101541
2019-02-06T11:22:51.811Z,101531
2019-02-06T11:25:20.662Z,101538
2019-02-06T11:27:49.508Z,101525
2019-02-06T11:30:20.957Z,101519
2019-02-06T11:32:49.787Z,101505
2019-02-06T11:35:18.650Z,101507
2019-02-06T11:37:47.505Z,101506
2019-02-06T11:40:19.292Z,101503
2019-02-06T11:42:48.127Z,101498
2019-02-06T11:45:17.842Z,101495
2019-02-06T11:47:46.669Z,101489
2019-02-06T11:50:16.406Z,101490
2019-02-06T11:52:46.011Z,101485
2019-02-06T11:55:14.826Z,101503
2019-02-06T11:57:43.671Z,101489
2019-02-06T12:00:13.131Z,101484
2019-02-06T12:02:43.938Z,101480
2019-02-06T12:05:12.767Z,101468
2019-02-06T12:07:41.605Z,101469
2019-02-06T12:10:11.368Z,101460
2019-02-06T12:12:40.219Z,101457
2019-02-06T12:15:09.849Z,101444
2019-02-06T12:17:38.769Z,101449
2019-02-06T12:20:08.439Z,101456
2019-02-06T12:22:37.300Z,101442
2019-02-06T12:25:06.853Z,101433
2019-02-06T12:27:35.707Z,101434
2019-02-06T12:30:10.147Z,101421
2019-02-06T12:32:38.993Z,101424
2019-02-06T12:35:08.598Z,101428
2019-02-06T12:37:38.197Z,101414
2019-02-06T12:40:07.813Z,101397
2019-02-06T12:42:37.397Z,101412
2019-02-06T12:45:06.229Z,101402
2019-02-06T12:47:35.343Z,101393
2019-02-06T12:50:03.943Z,101392
2019-02-06T12:52:32.777Z,101395
2019-02-06T12:55:02.381Z,101392
2019-02-06T12:57:36.902Z,101382
2019-02-06T13:00:01.589Z,101375
2019-02-06T13:02:30.448Z,101368
2019-02-06T13:04:59.326Z,101372
2019-02-06T13:07:28.123Z,101365
2019-02-06T13:09:56.967Z,101372
2019-02-06T13:12:27.384Z,101361
2019-02-06T13:14:55.430Z,101352
2019-02-06T13:17:24.255Z,101345
2019-02-06T13:19:53.097Z,101339
2019-02-06T13:22:21.937Z,101341
2019-02-06T13:24:50.783Z,101340
2019-02-06T13:27:19.637Z,101358
2019-02-06T13:29:48.487Z,101348
2019-02-06T13:32:18.073Z,101359
2019-02-06T13:37:20.737Z,101341
2019-02-06T13:39:49.574Z,101324
2019-02-06T13:42:19.155Z,101328
2019-02-06T13:44:47.989Z,101325
2019-02-06T13:47:16.837Z,101323
2019-02-06T13:49:46.961Z,101315
2019-02-06T13:52:14.563Z,101316
2019-02-06T13:54:43.403Z,101308
2019-02-06T13:57:12.245Z,101300
2019-02-06T13:59:41.091Z,101293
2019-02-06T14:02:09.931Z,101296
2019-02-06T14:04:38.761Z,101297
2019-02-06T14:07:07.631Z,101299
2019-02-06T14:09:36.443Z,101285
2019-02-06T14:12:05.310Z,101285
2019-02-06T14:14:34.167Z,101280
2019-02-06T14:17:03.011Z,101276
2019-02-06T14:19:31.853Z,101274
2019-02-06T14:22:00.701Z,101265
2019-02-06T14:24:30.311Z,101266
2019-02-06T14:27:03.322Z,101266
2019-02-06T14:32:28.993Z,101256
2019-02-06T14:37:46.643Z,101251
2019-02-06T14:43:08.070Z,101245
2019-02-06T14:51:17.353Z,101240
2019-02-06T14:59:13.575Z,101224
2019-02-06T15:01:48.657Z,101218
2019-02-06T15:07:07.369Z,101206
2019-02-06T15:12:33.263Z,101187
2019-02-06T15:20:36.085Z,101181
2019-02-06T15:23:10.480Z,101193
2019-02-06T15:25:43.239Z,101178
2019-02-06T15:28:14.839Z,101186
2019-02-06T15:33:30.544Z,101188
2019-02-06T15:38:47.390Z,101187
2019-02-06T15:44:01.839Z,101173
2019-02-06T15:46:36.729Z,101170
2019-02-06T15:49:07.143Z,101171
2019-02-06T15:51:45.262Z,101172
2019-02-06T15:54:28.095Z,101172
2019-02-06T15:56:59.585Z,101175
2019-02-06T16:02:19.424Z,101178
2019-02-06T16:04:53.583Z,101170
2019-02-06T16:07:28.677Z,101164
2019-02-06T16:15:34.725Z,101155
2019-02-06T16:18:06.175Z,101153
2019-02-06T16:20:36.881Z,101151
2019-02-06T16:23:16.128Z,101154
2019-02-06T16:31:26.113Z,101162
2019-02-06T16:34:02.771Z,101152
2019-02-06T16:39:22.325Z,101158
2019-02-06T16:41:59.930Z,101150
2019-02-06T16:44:28.761Z,101150
2019-02-06T16:47:04.122Z,101144
2019-02-06T16:49:35.477Z,101141
2019-02-06T16:52:11.912Z,101136
2019-02-06T16:54:50.606Z,101144
2019-02-06T16:57:20.334Z,101133
2019-02-06T16:59:59.013Z,101146
2019-02-06T17:02:38.234Z,101127
2019-02-06T17:05:17.580Z,101135
2019-02-06T17:10:38.382Z,101136
2019-02-06T17:13:12.548Z,101139
2019-02-06T17:15:49.710Z,101137
2019-02-06T17:18:23.794Z,101132
2019-02-06T17:20:52.633Z,101138
2019-02-06T17:23:27.426Z,101140
2019-02-06T17:26:07.546Z,101145
2019-02-06T17:31:34.042Z,101138
2019-02-06T17:34:20.436Z,101137
2019-02-06T17:39:39.022Z,101128
2019-02-06T17:42:18.116Z,101126
2019-02-06T17:50:14.131Z,101128
2019-02-06T17:55:26.784Z,101117
2019-02-06T17:57:55.634Z,101099
2019-02-06T18:00:28.408Z,101094
2019-02-06T18:02:56.001Z,101099
2019-02-06T18:05:24.840Z,101101
2019-02-06T18:07:53.694Z,101107
2019-02-06T18:10:23.277Z,101104
2019-02-06T18:12:52.129Z,101109
2019-02-06T18:15:20.961Z,101110
2019-02-06T18:17:49.827Z,101111
2019-02-06T18:20:18.673Z,101085
2019-02-06T18:22:47.507Z,101088
2019-02-06T18:25:16.335Z,101091
2019-02-06T18:27:46.719Z,101080
2019-02-06T18:30:19.504Z,101076
2019-02-06T18:32:48.360Z,101068
2019-02-06T18:35:17.205Z,101073
2019-02-06T18:37:46.987Z,101072
2019-02-06T18:40:15.810Z,101066
2019-02-06T18:42:45.460Z,101069
2019-02-06T18:45:14.303Z,101058
2019-02-06T18:47:43.900Z,101062
2019-02-06T18:50:15.639Z,101068
2019-02-06T18:52:44.484Z,101069
2019-02-06T18:55:13.322Z,101066
2019-02-06T18:57:42.158Z,101065
2019-02-06T19:00:14.712Z,101057
2019-02-06T19:02:43.550Z,101055
2019-02-06T19:05:12.435Z,101062
2019-02-06T19:07:42.032Z,101051
2019-02-06T19:10:10.859Z,101054
2019-02-06T19:12:47.865Z,101048
2019-02-06T19:15:08.587Z,101039
2019-02-06T19:17:37.439Z,101048
2019-02-06T19:20:06.345Z,101049
2019-02-06T19:22:35.151Z,101046
2019-02-06T19:25:04.752Z,101045
2019-02-06T19:27:33.604Z,101048
2019-02-06T19:30:02.455Z,101049
2019-02-06T19:32:31.315Z,101043
2019-02-06T19:35:00.916Z,101031
2019-02-06T19:37:29.779Z,101025
2019-02-06T19:39:58.660Z,101018
2019-02-06T19:42:27.515Z,101011
2019-02-06T19:44:56.922Z,101009
2019-02-06T19:47:30.036Z,100999
2019-02-06T19:49:55.388Z,100997
2019-02-06T19:52:24.968Z,101003
2019-02-06T19:54:53.810Z,100993
2019-02-06T19:57:22.639Z,100997
2019-02-06T19:59:51.478Z,100994
2019-02-06T20:02:21.111Z,100994
2019-02-06T20:04:50.656Z,100981
2019-02-06T20:07:19.488Z,100986
2019-02-06T20:09:48.322Z,100985
2019-02-06T20:12:17.171Z,100986
2019-02-06T20:14:46.018Z,100984
2019-02-06T20:17:14.860Z,100986
2019-02-06T20:19:43.752Z,100984
2019-02-06T20:22:13.320Z,100980
2019-02-06T20:24:42.904Z,100980
2019-02-06T20:27:11.748Z,100981
2019-02-06T20:29:40.586Z,100983
2019-02-06T20:32:09.417Z,100977
2019-02-06T20:34:38.250Z,100976
2019-02-06T20:37:07.102Z,100988
2019-02-06T20:39:35.938Z,100985
2019-02-06T20:42:04.785Z,100980
2019-02-06T20:44:33.616Z,100977
2019-02-06T20:47:03.112Z,100974
2019-02-06T20:49:31.926Z,100976
2019-02-06T20:52:00.784Z,100973
2019-02-06T20:54:29.614Z,100971
2019-02-06T20:56:59.195Z,100964
2019-02-06T20:59:28.067Z,100965
2019-02-06T21:01:57.196Z,100957
2019-02-06T21:04:26.053Z,100958
2019-02-06T21:06:54.899Z,100957
2019-02-06T21:09:24.470Z,100944
2019-02-06T21:11:53.320Z,100952
2019-02-06T21:14:22.168Z,100942
2019-02-06T21:16:51.780Z,100951
2019-02-06T21:19:20.672Z,100952
2019-02-06T21:21:49.476Z,100959
2019-02-06T21:24:18.310Z,100970
2019-02-06T21:26:47.194Z,100966
2019-02-06T21:29:16.029Z,100962
2019-02-06T21:31:44.874Z,100961
2019-02-06T21:34:13.720Z,100955
2019-02-06T21:36:42.574Z,100952
2019-02-06T21:39:11.415Z,100946
2019-02-06T21:41:40.244Z,100954
2019-02-06T21:44:09.124Z,100947
2019-02-06T21:46:37.962Z,100938
2019-02-06T21:49:06.818Z,100937
2019-02-06T21:51:35.655Z,100929
2019-02-06T21:54:04.489Z,100939
2019-02-06T21:56:33.358Z,100924
2019-02-06T21:59:02.239Z,100925
2019-02-06T22:01:31.028Z,100910
2019-02-06T22:03:59.899Z,100917
2019-02-06T22:06:28.715Z,100912
2019-02-06T22:08:57.546Z,100906
2019-02-06T22:11:26.378Z,100896
2019-02-06T22:13:55.634Z,100904
2019-02-06T22:16:24.804Z,100892
2019-02-06T22:18:54.384Z,100889
2019-02-06T22:21:23.230Z,100893
2019-02-06T22:23:52.088Z,100887
2019-02-06T22:26:21.674Z,100877
2019-02-06T22:28:50.520Z,100880
2019-02-06T22:31:19.364Z,100864
2019-02-06T22:33:48.195Z,100859
2019-02-06T22:36:17.064Z,100856
2019-02-06T22:38:46.749Z,100861
2019-02-06T22:41:15.480Z,100878
2019-02-06T22:43:44.327Z,100868
2019-02-06T22:46:13.148Z,100876
2019-02-06T22:48:41.978Z,100884
2019-02-06T22:51:10.822Z,100874
2019-02-06T22:53:40.412Z,100873
2019-02-06T22:56:09.263Z,100871
2019-02-06T22:58:38.099Z,100881
2019-02-06T23:03:46.239Z,100875
2019-02-06T23:06:15.818Z,100863
2019-02-06T23:08:44.686Z,100861
2019-02-06T23:11:13.523Z,100851
2019-02-06T23:13:43.113Z,100835
2019-02-06T23:16:11.938Z,100826
2019-02-06T23:18:40.870Z,100823
2019-02-06T23:21:09.692Z,100819
2019-02-06T23:23:39.270Z,100816
2019-02-06T23:26:08.119Z,100818
2019-02-06T23:28:36.949Z,100804
2019-02-06T23:31:05.784Z,100794
2019-02-06T23:33:34.700Z,100792
2019-02-06T23:36:03.535Z,100789
2019-02-06T23:38:32.368Z,100794
2019-02-06T23:41:01.214Z,100802
2019-02-06T23:43:30.039Z,100798
2019-02-06T23:45:58.885Z,100805
2019-02-06T23:48:27.747Z,100801
2019-02-06T23:50:56.588Z,100797
2019-02-06T23:53:26.160Z,100794
2019-02-06T23:55:54.990Z,100788
2019-02-06T23:58:23.834Z,100780
